createdAt,value
2023-05-06T00:04:30.908Z,67.05
2023-05-06T00:09:32.499Z,68.33
2023-05-06T00:14:34.067Z,68.00
2023-05-06T00:19:35.623Z,67.81
2023-05-06T00:24:37.164Z,69.68
2023-05-06T00:29:38.779Z,68.51
2023-05-06T00:34:40.294Z,69.30
2023-05-06T00:39:41.976Z,68.66
2023-05-06T00:44:43.494Z,69.00
2023-05-06T00:49:47.491Z,67.68
2023-05-06T00:54:49.504Z,67.20
2023-05-06T00:59:51.086Z,66.73
2023-05-06T01:04:55.447Z,67.90
2023-05-06T01:10:06.580Z,67.75
2023-05-06T01:15:14.456Z,68.34
2023-05-06T01:20:18.375Z,69.12
2023-05-06T01:25:21.429Z,68.99
2023-05-06T01:30:24.794Z,69.53
2023-05-06T01:36:00.592Z,68.44
2023-05-06T01:41:03.024Z,68.00
2023-05-06T01:46:06.445Z,69.51
2023-05-06T01:51:07.972Z,68.95
2023-05-06T01:56:09.490Z,68.78
2023-05-06T02:01:11.032Z,69.01
2023-05-06T02:06:12.566Z,70.17
2023-05-06T02:11:14.209Z,70.14
2023-05-06T02:16:15.848Z,70.32
2023-05-06T02:21:19.403Z,71.25
2023-05-06T02:26:21.015Z,70.06
2023-05-06T02:31:22.783Z,69.86
2023-05-06T02:36:24.431Z,69.52
2023-05-06T02:41:25.996Z,69.73
2023-05-06T02:46:27.543Z,69.54
2023-05-06T02:51:29.114Z,70.23
2023-05-06T02:56:31.235Z,70.77
2023-05-06T03:01:33.188Z,69.20
2023-05-06T03:06:34.849Z,72.32
2023-05-06T03:11:36.374Z,71.79
2023-05-06T03:16:37.961Z,70.77
2023-05-06T03:21:39.553Z,71.58
2023-05-06T03:26:41.183Z,70.61
2023-05-06T03:31:42.767Z,71.23
2023-05-06T03:36:44.331Z,70.79
2023-05-06T03:41:45.858Z,72.60
2023-05-06T03:46:47.374Z,72.15
2023-05-06T03:51:48.991Z,72.36
2023-05-06T03:56:50.651Z,70.07
2023-05-06T04:01:52.299Z,70.08
2023-05-06T04:06:53.849Z,70.68
2023-05-06T04:11:55.906Z,69.84
2023-05-06T04:16:57.455Z,70.82
2023-05-06T04:21:59.019Z,69.27
2023-05-06T04:27:00.766Z,70.10
2023-05-06T04:32:03.042Z,70.91
2023-05-06T04:37:05.700Z,70.87
2023-05-06T04:42:07.529Z,71.62
2023-05-06T04:47:09.194Z,72.41
2023-05-06T04:52:10.842Z,71.76
2023-05-06T04:57:12.506Z,71.75
2023-05-06T05:02:14.066Z,71.21
2023-05-06T05:07:15.689Z,72.56
2023-05-06T05:12:17.288Z,70.94
2023-05-06T05:17:18.809Z,70.67
2023-05-06T05:22:20.671Z,70.45
2023-05-06T05:27:22.248Z,71.27
2023-05-06T05:32:23.847Z,70.82
2023-05-06T05:37:25.382Z,71.42
2023-05-06T05:42:27.863Z,73.31
2023-05-06T05:47:29.411Z,72.99
2023-05-06T05:52:31.657Z,73.12
2023-05-06T05:57:33.202Z,71.93
2023-05-06T06:02:34.858Z,71.51
2023-05-06T06:07:36.552Z,71.05
2023-05-06T06:12:38.268Z,71.36
2023-05-06T06:17:39.897Z,71.38
2023-05-06T06:22:41.640Z,71.43
2023-05-06T06:27:43.241Z,71.43
2023-05-06T06:32:49.769Z,72.13
2023-05-06T06:37:52.451Z,71.69
2023-05-06T06:42:53.987Z,71.63
2023-05-06T06:47:55.621Z,71.06
2023-05-06T06:52:57.170Z,71.68
2023-05-06T06:57:58.761Z,70.90
2023-05-06T07:03:00.452Z,71.06
2023-05-06T07:08:01.986Z,71.17
2023-05-06T07:13:03.729Z,70.31
2023-05-06T07:18:05.829Z,70.08
2023-05-06T07:23:07.480Z,69.41
2023-05-06T07:28:09.032Z,68.54
2023-05-06T07:33:11.503Z,69.08
2023-05-06T07:38:13.316Z,69.34
2023-05-06T07:43:14.853Z,68.76
2023-05-06T07:48:18.648Z,69.06
2023-05-06T07:53:21.548Z,67.90
2023-05-06T07:58:23.047Z,64.67
2023-05-06T08:03:26.189Z,64.58
2023-05-06T08:08:28.157Z,63.25
2023-05-06T08:13:30.716Z,64.01
2023-05-06T08:18:33.111Z,62.58
2023-05-06T08:23:34.771Z,63.36
2023-05-06T08:28:36.540Z,61.00
2023-05-06T08:33:38.168Z,62.45
2023-05-06T08:38:39.750Z,60.02
2023-05-06T08:43:42.297Z,59.08
2023-05-06T08:48:43.946Z,58.09
2023-05-06T08:53:49.465Z,58.24
2023-05-06T08:58:51.940Z,56.67
2023-05-06T09:03:55.175Z,58.81
2023-05-06T09:08:56.680Z,58.28
2023-05-06T09:14:27.505Z,56.28
2023-05-06T09:19:29.072Z,58.54
2023-05-06T09:24:30.934Z,57.18
2023-05-06T09:29:32.495Z,59.66
2023-05-06T09:34:34.369Z,56.92
2023-05-06T09:39:35.932Z,56.20
2023-05-06T09:44:37.857Z,56.50
2023-05-06T09:49:39.686Z,54.72
2023-05-06T09:54:41.603Z,53.20
2023-05-06T09:59:44.495Z,54.34
2023-05-06T10:04:48.596Z,53.30
2023-05-06T10:09:51.542Z,52.79
2023-05-06T10:14:53.148Z,53.22
2023-05-06T10:19:58.369Z,51.55
2023-05-06T10:25:05.596Z,52.29
2023-05-06T10:30:09.530Z,49.95
2023-05-06T10:35:41.030Z,50.67
2023-05-06T10:40:44.037Z,53.15
2023-05-06T10:46:04.204Z,52.07
2023-05-06T10:51:26.023Z,51.57
2023-05-06T10:56:27.887Z,49.22
2023-05-06T11:01:29.667Z,49.53
2023-05-06T11:06:48.834Z,52.88
2023-05-06T11:11:54.604Z,49.20
2023-05-06T11:16:58.927Z,49.73
2023-05-06T11:22:02.123Z,50.66
2023-05-06T11:27:03.892Z,52.24
2023-05-06T11:32:17.714Z,49.03
2023-05-06T11:37:28.138Z,49.30
2023-05-06T11:42:29.780Z,48.89
2023-05-06T11:47:31.407Z,49.16
2023-05-06T11:52:33.025Z,46.50
2023-05-06T11:57:34.607Z,47.22
2023-05-06T12:02:36.229Z,46.43
2023-05-06T12:07:38.589Z,49.05
2023-05-06T12:12:40.271Z,44.19
2023-05-06T12:17:41.935Z,44.14
2023-05-06T12:22:43.460Z,48.79
2023-05-06T12:27:45.648Z,46.64
2023-05-06T12:32:58.278Z,46.74
2023-05-06T12:38:16.286Z,48.78
2023-05-06T12:43:18.048Z,47.92
2023-05-06T12:48:19.553Z,49.65
2023-05-06T12:53:35.541Z,48.05
2023-05-06T12:58:38.198Z,47.30
2023-05-06T13:03:41.086Z,47.04
2023-05-06T13:08:42.876Z,47.33
2023-05-06T13:13:44.486Z,46.49
2023-05-06T13:18:46.016Z,47.73
2023-05-06T13:23:48.057Z,46.85
2023-05-06T13:28:49.728Z,45.43
2023-05-06T13:33:51.351Z,45.72
2023-05-06T13:38:53.256Z,45.16
2023-05-06T13:43:54.811Z,47.26
2023-05-06T13:48:56.392Z,46.35
2023-05-06T13:53:58.042Z,49.61
2023-05-06T13:58:59.597Z,51.06
2023-05-06T14:04:01.221Z,52.10
2023-05-06T14:09:02.759Z,50.31
2023-05-06T14:14:06.361Z,50.79
2023-05-06T14:19:07.914Z,50.08
2023-05-06T14:24:10.287Z,51.71
2023-05-06T14:29:11.934Z,53.32
2023-05-06T14:34:13.514Z,55.60
2023-05-06T14:39:15.386Z,55.29
2023-05-06T14:44:16.922Z,53.55
2023-05-06T14:49:18.600Z,52.83
2023-05-06T14:54:20.160Z,58.78
2023-05-06T14:59:22.696Z,60.53
2023-05-06T15:04:24.256Z,59.35
2023-05-06T15:09:26.376Z,60.82
2023-05-06T15:14:27.944Z,60.58
2023-05-06T15:19:29.486Z,61.36
2023-05-06T15:24:31.456Z,60.72
2023-05-06T15:29:33.024Z,59.62
2023-05-06T15:34:34.641Z,59.39
2023-05-06T15:39:37.725Z,57.92
2023-05-06T15:44:39.337Z,58.84
2023-05-06T15:54:49.713Z,59.54
2023-05-06T15:59:51.720Z,59.62
2023-05-06T16:04:53.614Z,60.16
2023-05-06T16:09:55.843Z,59.92
2023-05-06T16:14:57.644Z,59.25
2023-05-06T16:20:00.235Z,60.17
2023-05-06T16:25:01.771Z,60.04
2023-05-06T16:30:03.644Z,59.11
2023-05-06T16:35:05.672Z,59.55
2023-05-06T16:40:08.410Z,59.09
2023-05-06T16:45:12.090Z,59.12
2023-05-06T16:50:14.185Z,58.82
2023-05-06T16:55:16.192Z,59.04
2023-05-06T17:00:18.300Z,59.51
2023-05-06T17:05:22.050Z,60.63
2023-05-06T17:10:29.169Z,59.83
2023-05-06T17:15:31.348Z,61.20
2023-05-06T17:20:38.045Z,62.27
2023-05-06T17:25:49.641Z,62.89
2023-05-06T17:30:51.986Z,63.13
2023-05-06T17:35:54.216Z,63.40
2023-05-06T17:40:56.667Z,63.95
2023-05-06T17:45:58.641Z,66.31
2023-05-06T17:51:02.573Z,68.89
2023-05-06T17:56:05.051Z,74.22
2023-05-06T18:01:07.304Z,74.79
2023-05-06T18:06:09.527Z,77.62
2023-05-06T18:11:11.913Z,74.46
2023-05-06T18:16:14.151Z,75.65
2023-05-06T18:21:16.303Z,74.77
2023-05-06T18:26:31.711Z,77.28
2023-05-06T18:31:41.415Z,75.65
2023-05-06T18:36:43.696Z,77.96
2023-05-06T18:41:45.961Z,80.49
2023-05-06T18:46:48.192Z,81.21
2023-05-06T18:51:50.443Z,83.44
2023-05-06T18:56:52.997Z,83.31
2023-05-06T19:01:55.306Z,82.49
2023-05-06T19:06:57.617Z,81.85
2023-05-06T19:11:59.872Z,80.88
2023-05-06T19:17:04.210Z,83.28
2023-05-06T19:22:06.512Z,83.54
2023-05-06T19:27:08.654Z,85.51
2023-05-06T19:32:10.876Z,83.51
2023-05-06T19:37:13.144Z,82.25
2023-05-06T19:42:15.803Z,82.56
2023-05-06T19:47:18.057Z,85.19
2023-05-06T19:52:20.221Z,84.45
2023-05-06T19:57:22.405Z,83.08
2023-05-06T20:02:24.668Z,83.72
2023-05-06T20:07:26.844Z,84.06
2023-05-06T20:12:29.120Z,84.60
2023-05-06T20:17:31.588Z,84.38
2023-05-06T20:22:33.860Z,84.06
2023-05-06T20:27:36.796Z,84.15
2023-05-06T20:32:40.911Z,84.08
2023-05-06T20:37:43.102Z,83.84
2023-05-06T20:42:45.010Z,83.53
2023-05-06T20:47:46.667Z,84.67
2023-05-06T20:52:48.375Z,84.51
2023-05-06T20:57:50.058Z,84.91
2023-05-06T21:02:51.836Z,83.77
2023-05-06T21:07:53.929Z,84.79
2023-05-06T21:12:55.661Z,82.71
2023-05-06T21:17:57.262Z,84.05
2023-05-06T21:22:58.873Z,82.77
2023-05-06T21:28:05.404Z,83.62
2023-05-06T21:33:08.306Z,84.09
2023-05-06T21:38:10.077Z,84.28
2023-05-06T21:43:12.491Z,83.77
2023-05-06T21:48:14.064Z,83.28
2023-05-06T21:53:15.773Z,82.44
2023-05-06T21:58:17.320Z,83.20
2023-05-06T22:03:18.926Z,84.99
2023-05-06T22:08:20.606Z,82.08
2023-05-06T22:13:25.590Z,81.76
2023-05-06T22:18:28.000Z,82.85
2023-05-06T22:23:29.624Z,82.73
2023-05-06T22:28:31.241Z,82.35
2023-05-06T22:33:32.869Z,82.02
2023-05-06T22:38:34.433Z,81.25
2023-05-06T22:43:35.955Z,84.13
2023-05-06T22:48:37.462Z,84.53
2023-05-06T22:53:38.993Z,84.86
2023-05-06T22:58:40.674Z,85.84
2023-05-06T23:03:42.309Z,85.94
2023-05-06T23:08:44.073Z,86.27
2023-05-06T23:13:45.721Z,83.89
2023-05-06T23:18:47.631Z,85.82
2023-05-06T23:23:51.315Z,84.34
2023-05-06T23:28:52.825Z,83.20
2023-05-06T23:33:54.415Z,83.64
2023-05-06T23:38:56.501Z,82.35
2023-05-06T23:43:58.074Z,82.67
2023-05-06T23:48:59.617Z,84.08
2023-05-06T23:54:01.354Z,83.73
2023-05-06T23:59:02.894Z,84.51
